sensor_id;sensor_type;location;lat;lon;timestamp;P1;durP1;ratioP1;P2;durP2;ratioP2
45905;SDS011;31619;49.008;12.106;2022-10-16T00:01:41;7.22;;;6.63;;
45905;SDS011;31619;49.008;12.106;2022-10-16T00:04:07;6.85;;;6.28;;
45905;SDS011;31619;49.008;12.106;2022-10-16T00:06:33;7.75;;;6.63;;
45905;SDS011;31619;49.008;12.106;2022-10-16T00:08:59;8.15;;;7.47;;
45905;SDS011;31619;49.008;12.106;2022-10-16T00:11:29;6.75;;;6.22;;
45905;SDS011;31619;49.008;12.106;2022-10-16T00:13:59;7.20;;;6.60;;
45905;SDS011;31619;49.008;12.106;2022-10-16T00:16:26;9.15;;;7.07;;
45905;SDS011;31619;49.008;12.106;2022-10-16T00:21:52;7.80;;;7.00;;
45905;SDS011;31619;49.008;12.106;2022-10-16T00:24:38;11.10;;;6.72;;
45905;SDS011;31619;49.008;12.106;2022-10-16T00:27:09;8.25;;;6.95;;
45905;SDS011;31619;49.008;12.106;2022-10-16T00:29:35;8.05;;;7.10;;
45905;SDS011;31619;49.008;12.106;2022-10-16T00:32:01;11.82;;;7.03;;
45905;SDS011;31619;49.008;12.106;2022-10-16T00:34:26;7.82;;;6.82;;
45905;SDS011;31619;49.008;12.106;2022-10-16T00:36:52;11.45;;;7.10;;
45905;SDS011;31619;49.008;12.106;2022-10-16T00:39:20;6.65;;;6.13;;
45905;SDS011;31619;49.008;12.106;2022-10-16T00:41:47;7.05;;;6.32;;
45905;SDS011;31619;49.008;12.106;2022-10-16T00:47:12;6.32;;;5.78;;
45905;SDS011;31619;49.008;12.106;2022-10-16T00:50:10;6.43;;;5.93;;
45905;SDS011;31619;49.008;12.106;2022-10-16T00:52:37;9.32;;;6.65;;
45905;SDS011;31619;49.008;12.106;2022-10-16T00:55:06;7.95;;;6.30;;
45905;SDS011;31619;49.008;12.106;2022-10-16T00:57:34;9.15;;;6.88;;
45905;SDS011;31619;49.008;12.106;2022-10-16T00:59:59;6.72;;;6.13;;
45905;SDS011;31619;49.008;12.106;2022-10-16T01:02:26;8.15;;;7.22;;
45905;SDS011;31619;49.008;12.106;2022-10-16T01:04:52;7.80;;;6.13;;
45905;SDS011;31619;49.008;12.106;2022-10-16T01:15:18;8.35;;;6.90;;
45905;SDS011;31619;49.008;12.106;2022-10-16T01:18:05;6.97;;;6.38;;
45905;SDS011;31619;49.008;12.106;2022-10-16T01:20:51;7.25;;;5.60;;
45905;SDS011;31619;49.008;12.106;2022-10-16T01:26:36;5.68;;;5.18;;
45905;SDS011;31619;49.008;12.106;2022-10-16T01:31:33;7.32;;;6.38;;
45905;SDS011;31619;49.008;12.106;2022-10-16T01:34:12;7.20;;;6.53;;
45905;SDS011;31619;49.008;12.106;2022-10-16T01:36:45;6.38;;;5.78;;
45905;SDS011;31619;49.008;12.106;2022-10-16T01:39:19;8.93;;;6.25;;
45905;SDS011;31619;49.008;12.106;2022-10-16T01:44:45;6.80;;;6.18;;
45905;SDS011;31619;49.008;12.106;2022-10-16T01:47:13;5.97;;;5.50;;
45905;SDS011;31619;49.008;12.106;2022-10-16T01:49:40;6.53;;;5.78;;
45905;SDS011;31619;49.008;12.106;2022-10-16T01:52:13;8.38;;;5.45;;
45905;SDS011;31619;49.008;12.106;2022-10-16T01:54:45;7.43;;;6.07;;
45905;SDS011;31619;49.008;12.106;2022-10-16T01:57:13;6.53;;;5.75;;
45905;SDS011;31619;49.008;12.106;2022-10-16T01:59:42;5.85;;;5.38;;
45905;SDS011;31619;49.008;12.106;2022-10-16T02:02:10;6.55;;;5.97;;
45905;SDS011;31619;49.008;12.106;2022-10-16T02:04:39;6.43;;;5.65;;
45905;SDS011;31619;49.008;12.106;2022-10-16T02:07:17;9.27;;;5.80;;
45905;SDS011;31619;49.008;12.106;2022-10-16T02:09:43;7.45;;;5.95;;
45905;SDS011;31619;49.008;12.106;2022-10-16T02:12:19;6.15;;;5.75;;
45905;SDS011;31619;49.008;12.106;2022-10-16T02:14:52;5.82;;;5.32;;
45905;SDS011;31619;49.008;12.106;2022-10-16T02:17:20;5.72;;;5.22;;
45905;SDS011;31619;49.008;12.106;2022-10-16T02:19:47;6.80;;;6.03;;
45905;SDS011;31619;49.008;12.106;2022-10-16T02:22:19;7.03;;;4.78;;
45905;SDS011;31619;49.008;12.106;2022-10-16T02:30:52;12.32;;;5.18;;
45905;SDS011;31619;49.008;12.106;2022-10-16T02:33:25;5.70;;;5.18;;
45905;SDS011;31619;49.008;12.106;2022-10-16T02:35:52;7.88;;;5.43;;
45905;SDS011;31619;49.008;12.106;2022-10-16T02:38:40;6.20;;;5.60;;
45905;SDS011;31619;49.008;12.106;2022-10-16T02:41:05;5.03;;;4.70;;
45905;SDS011;31619;49.008;12.106;2022-10-16T02:43:31;6.32;;;5.72;;
45905;SDS011;31619;49.008;12.106;2022-10-16T02:45:58;6.00;;;5.28;;
45905;SDS011;31619;49.008;12.106;2022-10-16T02:48:24;14.68;;;6.03;;
45905;SDS011;31619;49.008;12.106;2022-10-16T02:50:50;7.32;;;5.78;;
45905;SDS011;31619;49.008;12.106;2022-10-16T02:53:16;5.80;;;5.13;;
45905;SDS011;31619;49.008;12.106;2022-10-16T02:55:41;5.53;;;5.13;;
45905;SDS011;31619;49.008;12.106;2022-10-16T02:58:10;6.20;;;5.68;;
45905;SDS011;31619;49.008;12.106;2022-10-16T03:00:36;7.47;;;6.43;;
45905;SDS011;31619;49.008;12.106;2022-10-16T03:03:01;6.30;;;5.68;;
45905;SDS011;31619;49.008;12.106;2022-10-16T03:05:27;6.18;;;5.60;;
45905;SDS011;31619;49.008;12.106;2022-10-16T03:07:53;7.50;;;6.32;;
45905;SDS011;31619;49.008;12.106;2022-10-16T03:10:18;9.63;;;6.47;;
45905;SDS011;31619;49.008;12.106;2022-10-16T03:12:44;6.60;;;6.00;;
45905;SDS011;31619;49.008;12.106;2022-10-16T03:15:10;10.00;;;6.53;;
45905;SDS011;31619;49.008;12.106;2022-10-16T03:17:38;10.32;;;6.28;;
45905;SDS011;31619;49.008;12.106;2022-10-16T03:20:04;7.90;;;6.07;;
45905;SDS011;31619;49.008;12.106;2022-10-16T03:29:55;8.00;;;6.32;;
45905;SDS011;31619;49.008;12.106;2022-10-16T03:32:34;6.10;;;5.50;;
45905;SDS011;31619;49.008;12.106;2022-10-16T03:35:07;7.45;;;5.35;;
45905;SDS011;31619;49.008;12.106;2022-10-16T03:37:33;5.43;;;4.85;;
45905;SDS011;31619;49.008;12.106;2022-10-16T03:39:59;6.55;;;5.70;;
45905;SDS011;31619;49.008;12.106;2022-10-16T03:42:57;6.38;;;5.88;;
45905;SDS011;31619;49.008;12.106;2022-10-16T03:45:36;5.45;;;5.05;;
45905;SDS011;31619;49.008;12.106;2022-10-16T03:48:32;5.90;;;5.40;;
45905;SDS011;31619;49.008;12.106;2022-10-16T03:51:01;6.15;;;5.65;;
45905;SDS011;31619;49.008;12.106;2022-10-16T03:53:33;8.38;;;5.97;;
45905;SDS011;31619;49.008;12.106;2022-10-16T03:56:01;5.65;;;5.15;;
45905;SDS011;31619;49.008;12.106;2022-10-16T03:58:27;10.18;;;5.85;;
45905;SDS011;31619;49.008;12.106;2022-10-16T04:00:53;6.43;;;5.55;;
45905;SDS011;31619;49.008;12.106;2022-10-16T04:03:18;5.97;;;5.50;;
45905;SDS011;31619;49.008;12.106;2022-10-16T04:05:44;9.13;;;5.32;;
45905;SDS011;31619;49.008;12.106;2022-10-16T04:08:10;7.88;;;5.55;;
45905;SDS011;31619;49.008;12.106;2022-10-16T04:10:35;6.72;;;5.13;;
45905;SDS011;31619;49.008;12.106;2022-10-16T04:13:01;4.90;;;4.50;;
45905;SDS011;31619;49.008;12.106;2022-10-16T04:15:27;6.50;;;5.90;;
45905;SDS011;31619;49.008;12.106;2022-10-16T04:18:18;6.78;;;5.03;;
45905;SDS011;31619;49.008;12.106;2022-10-16T04:21:05;5.95;;;5.45;;
45905;SDS011;31619;49.008;12.106;2022-10-16T04:23:31;5.75;;;5.30;;
45905;SDS011;31619;49.008;12.106;2022-10-16T04:26:03;5.78;;;5.32;;
45905;SDS011;31619;49.008;12.106;2022-10-16T04:28:29;5.32;;;4.82;;
45905;SDS011;31619;49.008;12.106;2022-10-16T04:30:55;6.30;;;5.57;;
45905;SDS011;31619;49.008;12.106;2022-10-16T04:33:21;8.73;;;5.80;;
45905;SDS011;31619;49.008;12.106;2022-10-16T04:35:46;10.75;;;5.75;;
45905;SDS011;31619;49.008;12.106;2022-10-16T04:38:12;5.70;;;5.30;;
45905;SDS011;31619;49.008;12.106;2022-10-16T04:40:38;7.07;;;5.07;;
45905;SDS011;31619;49.008;12.106;2022-10-16T04:43:04;5.28;;;4.80;;
45905;SDS011;31619;49.008;12.106;2022-10-16T04:45:30;5.88;;;5.32;;
45905;SDS011;31619;49.008;12.106;2022-10-16T04:48:00;6.63;;;5.35;;
45905;SDS011;31619;49.008;12.106;2022-10-16T04:50:25;6.28;;;5.68;;
45905;SDS011;31619;49.008;12.106;2022-10-16T04:52:51;7.63;;;5.45;;
45905;SDS011;31619;49.008;12.106;2022-10-16T04:55:17;6.57;;;5.43;;
45905;SDS011;31619;49.008;12.106;2022-10-16T04:57:43;6.47;;;5.25;;
45905;SDS011;31619;49.008;12.106;2022-10-16T05:00:08;6.22;;;5.68;;
45905;SDS011;31619;49.008;12.106;2022-10-16T05:02:34;6.28;;;5.68;;
45905;SDS011;31619;49.008;12.106;2022-10-16T05:05:00;6.57;;;5.47;;
45905;SDS011;31619;49.008;12.106;2022-10-16T05:07:26;6.38;;;5.88;;
45905;SDS011;31619;49.008;12.106;2022-10-16T05:09:51;6.55;;;5.93;;
45905;SDS011;31619;49.008;12.106;2022-10-16T05:12:17;7.15;;;6.28;;
45905;SDS011;31619;49.008;12.106;2022-10-16T05:14:42;6.53;;;6.00;;
45905;SDS011;31619;49.008;12.106;2022-10-16T05:17:08;8.60;;;6.47;;
45905;SDS011;31619;49.008;12.106;2022-10-16T05:19:33;8.10;;;6.15;;
45905;SDS011;31619;49.008;12.106;2022-10-16T05:21:59;9.98;;;6.90;;
45905;SDS011;31619;49.008;12.106;2022-10-16T05:24:25;6.47;;;5.97;;
45905;SDS011;31619;49.008;12.106;2022-10-16T05:26:51;6.20;;;5.75;;
45905;SDS011;31619;49.008;12.106;2022-10-16T05:29:17;6.28;;;5.75;;
45905;SDS011;31619;49.008;12.106;2022-10-16T05:31:42;6.93;;;6.28;;
45905;SDS011;31619;49.008;12.106;2022-10-16T05:34:08;6.97;;;5.53;;
45905;SDS011;31619;49.008;12.106;2022-10-16T05:36:34;6.18;;;5.57;;
45905;SDS011;31619;49.008;12.106;2022-10-16T05:38:59;5.60;;;5.30;;
45905;SDS011;31619;49.008;12.106;2022-10-16T05:41:25;5.95;;;5.35;;
45905;SDS011;31619;49.008;12.106;2022-10-16T05:43:51;6.05;;;5.53;;
45905;SDS011;31619;49.008;12.106;2022-10-16T05:46:17;6.40;;;4.90;;
45905;SDS011;31619;49.008;12.106;2022-10-16T05:48:43;8.65;;;5.68;;
45905;SDS011;31619;49.008;12.106;2022-10-16T05:51:10;6.43;;;5.82;;
45905;SDS011;31619;49.008;12.106;2022-10-16T05:53:38;6.55;;;5.57;;
45905;SDS011;31619;49.008;12.106;2022-10-16T05:56:05;6.72;;;6.07;;
45905;SDS011;31619;49.008;12.106;2022-10-16T05:58:33;7.13;;;5.68;;
45905;SDS011;31619;49.008;12.106;2022-10-16T06:01:04;5.28;;;4.80;;
45905;SDS011;31619;49.008;12.106;2022-10-16T06:03:32;5.93;;;5.40;;
45905;SDS011;31619;49.008;12.106;2022-10-16T06:05:58;7.35;;;6.18;;
45905;SDS011;31619;49.008;12.106;2022-10-16T06:08:31;7.15;;;6.47;;
45905;SDS011;31619;49.008;12.106;2022-10-16T06:11:03;6.63;;;6.05;;
45905;SDS011;31619;49.008;12.106;2022-10-16T06:13:30;6.28;;;5.68;;
45905;SDS011;31619;49.008;12.106;2022-10-16T06:15:57;8.18;;;5.45;;
45905;SDS011;31619;49.008;12.106;2022-10-16T06:18:24;7.22;;;6.25;;
45905;SDS011;31619;49.008;12.106;2022-10-16T06:20:50;6.22;;;5.72;;
45905;SDS011;31619;49.008;12.106;2022-10-16T06:23:15;5.90;;;5.50;;
45905;SDS011;31619;49.008;12.106;2022-10-16T06:25:41;7.90;;;6.18;;
45905;SDS011;31619;49.008;12.106;2022-10-16T06:28:07;7.32;;;5.53;;
45905;SDS011;31619;49.008;12.106;2022-10-16T06:30:32;9.43;;;5.50;;
45905;SDS011;31619;49.008;12.106;2022-10-16T06:32:58;6.00;;;5.40;;
45905;SDS011;31619;49.008;12.106;2022-10-16T06:35:23;5.65;;;5.15;;
45905;SDS011;31619;49.008;12.106;2022-10-16T06:37:49;5.43;;;4.95;;
45905;SDS011;31619;49.008;12.106;2022-10-16T06:40:15;7.85;;;5.30;;
45905;SDS011;31619;49.008;12.106;2022-10-16T06:42:40;7.22;;;4.63;;
45905;SDS011;31619;49.008;12.106;2022-10-16T06:45:06;5.68;;;5.18;;
45905;SDS011;31619;49.008;12.106;2022-10-16T06:47:32;8.40;;;4.93;;
45905;SDS011;31619;49.008;12.106;2022-10-16T06:49:58;6.57;;;4.97;;
45905;SDS011;31619;49.008;12.106;2022-10-16T06:52:23;4.82;;;4.53;;
45905;SDS011;31619;49.008;12.106;2022-10-16T06:54:49;5.10;;;4.60;;
45905;SDS011;31619;49.008;12.106;2022-10-16T06:57:15;5.40;;;4.97;;
45905;SDS011;31619;49.008;12.106;2022-10-16T06:59:41;5.68;;;5.10;;
45905;SDS011;31619;49.008;12.106;2022-10-16T07:02:07;6.18;;;5.20;;
45905;SDS011;31619;49.008;12.106;2022-10-16T07:04:33;6.03;;;5.03;;
45905;SDS011;31619;49.008;12.106;2022-10-16T07:07:00;5.05;;;4.65;;
45905;SDS011;31619;49.008;12.106;2022-10-16T07:09:26;4.97;;;4.50;;
45905;SDS011;31619;49.008;12.106;2022-10-16T07:11:51;5.57;;;5.10;;
45905;SDS011;31619;49.008;12.106;2022-10-16T07:14:18;5.43;;;4.93;;
45905;SDS011;31619;49.008;12.106;2022-10-16T07:16:45;4.75;;;4.20;;
45905;SDS011;31619;49.008;12.106;2022-10-16T07:19:11;5.10;;;4.70;;
45905;SDS011;31619;49.008;12.106;2022-10-16T07:21:39;10.32;;;4.65;;
45905;SDS011;31619;49.008;12.106;2022-10-16T07:24:06;4.70;;;4.30;;
45905;SDS011;31619;49.008;12.106;2022-10-16T07:26:36;5.05;;;4.60;;
45905;SDS011;31619;49.008;12.106;2022-10-16T07:29:04;4.22;;;3.80;;
45905;SDS011;31619;49.008;12.106;2022-10-16T07:31:31;5.45;;;3.75;;
45905;SDS011;31619;49.008;12.106;2022-10-16T07:33:57;3.95;;;3.65;;
45905;SDS011;31619;49.008;12.106;2022-10-16T07:36:24;4.65;;;3.83;;
45905;SDS011;31619;49.008;12.106;2022-10-16T07:38:50;4.30;;;3.90;;
45905;SDS011;31619;49.008;12.106;2022-10-16T07:41:17;4.95;;;3.55;;
45905;SDS011;31619;49.008;12.106;2022-10-16T07:43:50;4.35;;;3.95;;
45905;SDS011;31619;49.008;12.106;2022-10-16T07:46:22;3.78;;;3.22;;
45905;SDS011;31619;49.008;12.106;2022-10-16T07:48:48;3.92;;;3.63;;
45905;SDS011;31619;49.008;12.106;2022-10-16T07:51:15;4.07;;;3.78;;
45905;SDS011;31619;49.008;12.106;2022-10-16T07:53:45;4.25;;;3.38;;
45905;SDS011;31619;49.008;12.106;2022-10-16T07:56:12;3.40;;;3.00;;
45905;SDS011;31619;49.008;12.106;2022-10-16T07:58:38;3.63;;;3.17;;
45905;SDS011;31619;49.008;12.106;2022-10-16T08:01:04;4.13;;;3.10;;
45905;SDS011;31619;49.008;12.106;2022-10-16T08:03:34;2.85;;;2.65;;
45905;SDS011;31619;49.008;12.106;2022-10-16T08:06:00;3.13;;;2.92;;
45905;SDS011;31619;49.008;12.106;2022-10-16T08:08:26;3.20;;;3.00;;
45905;SDS011;31619;49.008;12.106;2022-10-16T08:10:52;2.70;;;2.60;;
45905;SDS011;31619;49.008;12.106;2022-10-16T08:13:18;3.20;;;2.50;;
45905;SDS011;31619;49.008;12.106;2022-10-16T08:15:44;4.85;;;2.50;;
45905;SDS011;31619;49.008;12.106;2022-10-16T08:18:11;6.40;;;2.80;;
45905;SDS011;31619;49.008;12.106;2022-10-16T08:20:38;4.07;;;2.92;;
45905;SDS011;31619;49.008;12.106;2022-10-16T08:23:04;2.42;;;2.33;;
45905;SDS011;31619;49.008;12.106;2022-10-16T08:25:30;4.47;;;2.55;;
45905;SDS011;31619;49.008;12.106;2022-10-16T08:27:56;2.88;;;2.28;;
45905;SDS011;31619;49.008;12.106;2022-10-16T08:30:22;2.40;;;2.30;;
45905;SDS011;31619;49.008;12.106;2022-10-16T08:32:49;2.90;;;2.70;;
45905;SDS011;31619;49.008;12.106;2022-10-16T08:35:15;2.45;;;2.35;;
45905;SDS011;31619;49.008;12.106;2022-10-16T08:37:40;2.80;;;2.60;;
45905;SDS011;31619;49.008;12.106;2022-10-16T08:40:07;3.00;;;2.38;;
45905;SDS011;31619;49.008;12.106;2022-10-16T08:50:43;3.33;;;2.10;;
45905;SDS011;31619;49.008;12.106;2022-10-16T08:53:33;2.83;;;2.38;;
45905;SDS011;31619;49.008;12.106;2022-10-16T08:55:58;2.38;;;2.20;;
45905;SDS011;31619;49.008;12.106;2022-10-16T08:58:28;2.60;;;2.40;;
45905;SDS011;31619;49.008;12.106;2022-10-16T09:00:56;2.80;;;2.60;;
45905;SDS011;31619;49.008;12.106;2022-10-16T09:06:21;2.28;;;2.17;;
45905;SDS011;31619;49.008;12.106;2022-10-16T09:16:49;3.53;;;2.20;;
45905;SDS011;31619;49.008;12.106;2022-10-16T09:22:15;2.05;;;1.95;;
45905;SDS011;31619;49.008;12.106;2022-10-16T09:24:41;2.00;;;1.90;;
45905;SDS011;31619;49.008;12.106;2022-10-16T09:27:14;2.00;;;1.90;;
45905;SDS011;31619;49.008;12.106;2022-10-16T09:29:40;2.72;;;1.63;;
45905;SDS011;31619;49.008;12.106;2022-10-16T09:32:08;2.47;;;2.15;;
45905;SDS011;31619;49.008;12.106;2022-10-16T09:34:38;1.70;;;1.60;;
45905;SDS011;31619;49.008;12.106;2022-10-16T09:37:09;2.75;;;2.30;;
45905;SDS011;31619;49.008;12.106;2022-10-16T09:39:44;2.97;;;2.10;;
45905;SDS011;31619;49.008;12.106;2022-10-16T09:42:50;3.00;;;2.17;;
45905;SDS011;31619;49.008;12.106;2022-10-16T09:45:19;3.10;;;1.75;;
45905;SDS011;31619;49.008;12.106;2022-10-16T09:47:47;1.90;;;1.80;;
45905;SDS011;31619;49.008;12.106;2022-10-16T09:50:22;2.20;;;2.08;;
45905;SDS011;31619;49.008;12.106;2022-10-16T09:53:11;4.72;;;1.77;;
45905;SDS011;31619;49.008;12.106;2022-10-16T09:55:51;1.70;;;1.70;;
45905;SDS011;31619;49.008;12.106;2022-10-16T09:58:20;2.25;;;1.95;;
45905;SDS011;31619;49.008;12.106;2022-10-16T10:00:49;2.00;;;1.90;;
45905;SDS011;31619;49.008;12.106;2022-10-16T10:03:36;4.35;;;2.08;;
45905;SDS011;31619;49.008;12.106;2022-10-16T10:11:35;4.15;;;2.17;;
45905;SDS011;31619;49.008;12.106;2022-10-16T10:14:06;2.15;;;1.95;;
45905;SDS011;31619;49.008;12.106;2022-10-16T10:16:40;3.45;;;1.95;;
45905;SDS011;31619;49.008;12.106;2022-10-16T10:19:09;2.88;;;1.90;;
45905;SDS011;31619;49.008;12.106;2022-10-16T10:21:42;1.92;;;1.80;;
45905;SDS011;31619;49.008;12.106;2022-10-16T10:24:12;3.08;;;1.77;;
45905;SDS011;31619;49.008;12.106;2022-10-16T10:26:41;3.38;;;1.80;;
45905;SDS011;31619;49.008;12.106;2022-10-16T10:32:18;3.15;;;2.08;;
45905;SDS011;31619;49.008;12.106;2022-10-16T10:35:15;2.47;;;1.80;;
45905;SDS011;31619;49.008;12.106;2022-10-16T10:40:22;2.67;;;1.70;;
45905;SDS011;31619;49.008;12.106;2022-10-16T10:50:42;1.67;;;1.50;;
45905;SDS011;31619;49.008;12.106;2022-10-16T10:53:21;2.50;;;1.80;;
45905;SDS011;31619;49.008;12.106;2022-10-16T11:01:12;2.10;;;1.70;;
45905;SDS011;31619;49.008;12.106;2022-10-16T11:04:04;2.70;;;2.03;;
45905;SDS011;31619;49.008;12.106;2022-10-16T11:06:48;3.88;;;1.70;;
45905;SDS011;31619;49.008;12.106;2022-10-16T11:09:18;2.20;;;2.10;;
45905;SDS011;31619;49.008;12.106;2022-10-16T11:11:53;2.00;;;1.58;;
45905;SDS011;31619;49.008;12.106;2022-10-16T11:14:35;1.95;;;1.85;;
45905;SDS011;31619;49.008;12.106;2022-10-16T11:19:46;1.73;;;1.63;;
45905;SDS011;31619;49.008;12.106;2022-10-16T11:22:24;2.65;;;1.70;;
45905;SDS011;31619;49.008;12.106;2022-10-16T11:27:38;1.83;;;1.77;;
45905;SDS011;31619;49.008;12.106;2022-10-16T11:32:54;1.83;;;1.73;;
45905;SDS011;31619;49.008;12.106;2022-10-16T11:35:25;1.83;;;1.73;;
45905;SDS011;31619;49.008;12.106;2022-10-16T11:40:45;1.70;;;1.60;;
45905;SDS011;31619;49.008;12.106;2022-10-16T11:43:22;1.52;;;1.52;;
45905;SDS011;31619;49.008;12.106;2022-10-16T11:45:57;1.58;;;1.50;;
45905;SDS011;31619;49.008;12.106;2022-10-16T11:49:13;2.33;;;1.42;;
45905;SDS011;31619;49.008;12.106;2022-10-16T11:51:33;1.42;;;1.33;;
45905;SDS011;31619;49.008;12.106;2022-10-16T11:54:29;2.05;;;1.42;;
45905;SDS011;31619;49.008;12.106;2022-10-16T11:57:05;1.45;;;1.40;;
45905;SDS011;31619;49.008;12.106;2022-10-16T11:59:41;3.38;;;1.92;;
45905;SDS011;31619;49.008;12.106;2022-10-16T12:07:32;2.40;;;1.65;;
45905;SDS011;31619;49.008;12.106;2022-10-16T12:10:10;1.58;;;1.48;;
45905;SDS011;31619;49.008;12.106;2022-10-16T12:12:51;1.77;;;1.25;;
45905;SDS011;31619;49.008;12.106;2022-10-16T12:17:55;1.20;;;1.20;;
45905;SDS011;31619;49.008;12.106;2022-10-16T12:25:35;1.92;;;1.83;;
45905;SDS011;31619;49.008;12.106;2022-10-16T12:28:17;1.75;;;1.65;;
45905;SDS011;31619;49.008;12.106;2022-10-16T12:30:58;1.83;;;1.50;;
45905;SDS011;31619;49.008;12.106;2022-10-16T12:33:27;1.42;;;1.42;;
45905;SDS011;31619;49.008;12.106;2022-10-16T12:35:55;1.63;;;1.42;;
45905;SDS011;31619;49.008;12.106;2022-10-16T12:38:27;2.05;;;1.60;;
45905;SDS011;31619;49.008;12.106;2022-10-16T12:41:23;2.35;;;1.50;;
45905;SDS011;31619;49.008;12.106;2022-10-16T12:43:51;2.45;;;1.70;;
45905;SDS011;31619;49.008;12.106;2022-10-16T12:48:43;3.70;;;1.52;;
45905;SDS011;31619;49.008;12.106;2022-10-16T12:51:11;4.30;;;1.70;;
45905;SDS011;31619;49.008;12.106;2022-10-16T12:54:09;2.65;;;1.45;;
45905;SDS011;31619;49.008;12.106;2022-10-16T13:07:40;2.00;;;1.90;;
45905;SDS011;31619;49.008;12.106;2022-10-16T13:18:14;3.03;;;1.50;;
45905;SDS011;31619;49.008;12.106;2022-10-16T13:24:11;2.30;;;1.75;;
45905;SDS011;31619;49.008;12.106;2022-10-16T13:29:02;2.05;;;1.80;;
45905;SDS011;31619;49.008;12.106;2022-10-16T13:31:28;1.85;;;1.75;;
45905;SDS011;31619;49.008;12.106;2022-10-16T13:33:55;1.70;;;1.60;;
45905;SDS011;31619;49.008;12.106;2022-10-16T13:36:28;1.60;;;1.60;;
45905;SDS011;31619;49.008;12.106;2022-10-16T13:42:02;1.80;;;1.70;;
45905;SDS011;31619;49.008;12.106;2022-10-16T13:47:18;2.67;;;2.10;;
45905;SDS011;31619;49.008;12.106;2022-10-16T13:50:02;1.77;;;1.67;;
45905;SDS011;31619;49.008;12.106;2022-10-16T13:52:36;3.83;;;2.40;;
45905;SDS011;31619;49.008;12.106;2022-10-16T13:55:03;3.08;;;1.83;;
45905;SDS011;31619;49.008;12.106;2022-10-16T13:57:29;3.83;;;1.88;;
45905;SDS011;31619;49.008;12.106;2022-10-16T13:59:55;4.18;;;1.92;;
45905;SDS011;31619;49.008;12.106;2022-10-16T14:02:22;2.00;;;1.90;;
45905;SDS011;31619;49.008;12.106;2022-10-16T14:04:50;2.63;;;1.65;;
45905;SDS011;31619;49.008;12.106;2022-10-16T14:07:21;1.50;;;1.48;;
45905;SDS011;31619;49.008;12.106;2022-10-16T14:09:50;4.00;;;1.65;;
45905;SDS011;31619;49.008;12.106;2022-10-16T14:12:17;2.90;;;1.92;;
45905;SDS011;31619;49.008;12.106;2022-10-16T14:14:44;2.33;;;2.00;;
45905;SDS011;31619;49.008;12.106;2022-10-16T14:17:15;2.95;;;2.03;;
45905;SDS011;31619;49.008;12.106;2022-10-16T14:19:50;3.85;;;1.70;;
45905;SDS011;31619;49.008;12.106;2022-10-16T14:24:48;2.28;;;1.65;;
45905;SDS011;31619;49.008;12.106;2022-10-16T14:27:23;1.77;;;1.67;;
45905;SDS011;31619;49.008;12.106;2022-10-16T14:32:41;1.75;;;1.73;;
45905;SDS011;31619;49.008;12.106;2022-10-16T14:35:24;1.85;;;1.75;;
45905;SDS011;31619;49.008;12.106;2022-10-16T14:37:53;2.28;;;1.90;;
45905;SDS011;31619;49.008;12.106;2022-10-16T14:40:20;4.85;;;1.65;;
45905;SDS011;31619;49.008;12.106;2022-10-16T14:42:48;2.50;;;1.70;;
45905;SDS011;31619;49.008;12.106;2022-10-16T14:45:18;1.85;;;1.75;;
45905;SDS011;31619;49.008;12.106;2022-10-16T14:47:58;2.97;;;2.22;;
45905;SDS011;31619;49.008;12.106;2022-10-16T14:50:29;4.10;;;1.95;;
45905;SDS011;31619;49.008;12.106;2022-10-16T14:52:55;2.97;;;1.70;;
45905;SDS011;31619;49.008;12.106;2022-10-16T14:55:21;3.42;;;1.80;;
45905;SDS011;31619;49.008;12.106;2022-10-16T14:57:46;1.98;;;1.77;;
45905;SDS011;31619;49.008;12.106;2022-10-16T15:00:17;2.30;;;2.00;;
45905;SDS011;31619;49.008;12.106;2022-10-16T15:02:45;2.53;;;2.30;;
45905;SDS011;31619;49.008;12.106;2022-10-16T15:07:45;2.03;;;1.92;;
45905;SDS011;31619;49.008;12.106;2022-10-16T15:10:12;3.03;;;2.78;;
45905;SDS011;31619;49.008;12.106;2022-10-16T15:12:38;3.10;;;1.85;;
45905;SDS011;31619;49.008;12.106;2022-10-16T15:15:38;2.00;;;1.90;;
45905;SDS011;31619;49.008;12.106;2022-10-16T15:18:00;2.65;;;2.15;;
45905;SDS011;31619;49.008;12.106;2022-10-16T15:20:28;2.60;;;1.95;;
45905;SDS011;31619;49.008;12.106;2022-10-16T15:23:01;2.58;;;1.95;;
45905;SDS011;31619;49.008;12.106;2022-10-16T15:25:37;2.05;;;1.88;;
45905;SDS011;31619;49.008;12.106;2022-10-16T15:28:04;2.47;;;2.30;;
45905;SDS011;31619;49.008;12.106;2022-10-16T15:30:31;2.17;;;2.05;;
45905;SDS011;31619;49.008;12.106;2022-10-16T15:32:57;3.25;;;1.95;;
45905;SDS011;31619;49.008;12.106;2022-10-16T15:35:23;2.63;;;2.42;;
45905;SDS011;31619;49.008;12.106;2022-10-16T15:37:49;2.55;;;2.35;;
45905;SDS011;31619;49.008;12.106;2022-10-16T15:40:16;3.15;;;2.30;;
45905;SDS011;31619;49.008;12.106;2022-10-16T15:42:42;2.83;;;2.63;;
45905;SDS011;31619;49.008;12.106;2022-10-16T15:45:08;2.72;;;2.53;;
45905;SDS011;31619;49.008;12.106;2022-10-16T15:47:35;5.82;;;2.45;;
45905;SDS011;31619;49.008;12.106;2022-10-16T15:50:01;2.95;;;2.75;;
45905;SDS011;31619;49.008;12.106;2022-10-16T15:52:26;3.80;;;2.83;;
45905;SDS011;31619;49.008;12.106;2022-10-16T15:54:53;2.55;;;2.40;;
45905;SDS011;31619;49.008;12.106;2022-10-16T15:57:19;3.08;;;2.78;;
45905;SDS011;31619;49.008;12.106;2022-10-16T15:59:45;2.92;;;2.72;;
45905;SDS011;31619;49.008;12.106;2022-10-16T16:02:11;4.55;;;2.70;;
45905;SDS011;31619;49.008;12.106;2022-10-16T16:04:36;5.25;;;3.08;;
45905;SDS011;31619;49.008;12.106;2022-10-16T16:07:02;3.15;;;2.95;;
45905;SDS011;31619;49.008;12.106;2022-10-16T16:09:30;3.22;;;3.00;;
45905;SDS011;31619;49.008;12.106;2022-10-16T16:11:56;3.42;;;3.22;;
45905;SDS011;31619;49.008;12.106;2022-10-16T16:14:25;3.45;;;3.15;;
45905;SDS011;31619;49.008;12.106;2022-10-16T16:16:55;3.80;;;2.92;;
45905;SDS011;31619;49.008;12.106;2022-10-16T16:19:20;3.63;;;3.30;;
45905;SDS011;31619;49.008;12.106;2022-10-16T16:21:47;3.22;;;3.00;;
45905;SDS011;31619;49.008;12.106;2022-10-16T16:24:13;4.03;;;3.33;;
45905;SDS011;31619;49.008;12.106;2022-10-16T16:26:38;4.07;;;3.67;;
45905;SDS011;31619;49.008;12.106;2022-10-16T16:29:08;3.92;;;3.63;;
45905;SDS011;31619;49.008;12.106;2022-10-16T16:31:38;3.88;;;3.58;;
45905;SDS011;31619;49.008;12.106;2022-10-16T16:34:05;3.97;;;3.67;;
45905;SDS011;31619;49.008;12.106;2022-10-16T16:36:30;3.90;;;3.33;;
45905;SDS011;31619;49.008;12.106;2022-10-16T16:38:57;5.15;;;3.72;;
45905;SDS011;31619;49.008;12.106;2022-10-16T16:41:23;4.05;;;3.70;;
45905;SDS011;31619;49.008;12.106;2022-10-16T16:43:51;4.13;;;3.83;;
45905;SDS011;31619;49.008;12.106;2022-10-16T16:46:18;7.13;;;4.68;;
45905;SDS011;31619;49.008;12.106;2022-10-16T16:48:44;4.15;;;3.75;;
45905;SDS011;31619;49.008;12.106;2022-10-16T16:51:14;4.28;;;3.97;;
45905;SDS011;31619;49.008;12.106;2022-10-16T16:53:43;4.93;;;4.45;;
45905;SDS011;31619;49.008;12.106;2022-10-16T16:56:13;4.53;;;4.13;;
45905;SDS011;31619;49.008;12.106;2022-10-16T16:58:40;4.65;;;4.25;;
45905;SDS011;31619;49.008;12.106;2022-10-16T17:01:06;4.97;;;4.55;;
45905;SDS011;31619;49.008;12.106;2022-10-16T17:03:34;6.32;;;4.15;;
45905;SDS011;31619;49.008;12.106;2022-10-16T17:08:30;5.43;;;5.03;;
45905;SDS011;31619;49.008;12.106;2022-10-16T17:10:57;6.45;;;4.88;;
45905;SDS011;31619;49.008;12.106;2022-10-16T17:13:30;7.30;;;4.90;;
45905;SDS011;31619;49.008;12.106;2022-10-16T17:15:59;5.88;;;5.22;;
45905;SDS011;31619;49.008;12.106;2022-10-16T17:18:26;6.00;;;4.68;;